Impacts TAF Board
For situational awareness. Not to be used for flight planning purposes.
IDs:

KFXE - Ft Lauderdale/Execut, FL, US

Issued at 1720 UTC 21 Sep 2021
Updated at 2045 UTC 21 Sep 2021
Potential Impact None Slight Moderate High
Time1953Z 21/21Z 21/22Z 21/23Z 22/00Z 22/01Z 22/02Z 22/03Z 22/04Z 22/05Z 22/06Z 22/07Z 22/08Z 22/09Z>>
Type OBS PRVL PRVL PRVL PRVL PRVL PRVL PRVL PRVL PRVL PRVL PRVL PRVL PRVL
VIS 10 >6 >6 >6 >6 >6 >6 >6 >6 >6 >6 >6 >6 >6
CIG 100 50 50 50 -- -- -- -- -- -- -- -- -- --
Cover BKN BKN BKN BKN SCT SCT SCT SCT SCT SCT SCT SCT SCT SCT
FltCat VFR VFR VFR VFR VFR VFR VFR VFR VFR VFR VFR VFR VFR VFR
WX -- VCTS VCTS VCTS -- -- -- -- -- -- -- -- -- --
WDir 30 100 100 100 VRB VRB VRB VRB VRB VRB VRB VRB VRB VRB
WSpd 7 10 10 10 5 5 5 5 5 5 5 5 5 5
WGst -- -- -- -- -- -- -- -- -- -- -- -- -- --
Raw TAF
KFXE 211720Z 2118/2218 10010KT P6SM VCTS SCT030CB BKN050
  FM220000 VRB05KT P6SM FEW025 SCT250
  FM221400 12007KT P6SM SCT030 SCT050
  FM221700 16010KT P6SM VCTS SCT030CB BKN050


Raw METAR
KFXE 211953Z 03007KT 10SM SCT016 BKN100 27/26 A3000 RMK AO2 RAE49 SLP160 P0000 T02670256
KFXE 211853Z 02004KT 10SM -RA FEW055 BKN110 BKN120 27/26 A3001 RMK AO2 SLP163 P0000 T02670256
KFXE 211753Z 00000KT 10SM -RA FEW050 BKN100 BKN130 27/26 A3001 RMK AO2 SLP165 P0000 60056 T02670256 10267 20244 58012

METAR Board
Radar Display
Forecast Discussion
For situational awareness. Not to be used for flight planning purposes.